Terminal Aerodrome Forecast
Issued by NWS

Home | Current Version | Previous Version | Text Only | Print | Product List | Glossary On
Versions: 1 2 3 4 5 6 7 8 9 10 11 12 13 14 15 16 17 18 19 20 21
352
FTUS43 KAPX 052347
TAFTVC
TAF
KTVC 052347Z 0600/0624 28007KT P6SM SCT035 BKN250
     FM060700 23006KT P6SM SCT018 OVC090 WS020/24030KT
     FM061200 24008KT 4SM -SHSN OVC025=

USA.gov is the U.S. government's official web portal to all federal, state and local government web resources and services.